Terminal Aerodrome Forecast
Issued by NWS

Home | Current Version | Previous Version | Text Only | Print | Product List | Glossary On
Versions: 1 2 3 4 5 6 7 8 9 10 11 12 13
000
FTUS45 KREV 221131
TAFTVL
TAF
KTVL 221131Z 2212/2312 VRB03KT P6SM VCSH SCT070 BKN090
     FM222100 04006KT P6SM VCTS SCT060CB BKN090
     FM230300 VRB03KT P6SM VCSH SCT060 BKN110=

USA.gov is the U.S. government's official web portal to all federal, state and local government web resources and services.